createdAt,value
2022-12-05T00:01:21.763Z,98406.25
2022-12-05T00:03:50.134Z,98416.25
2022-12-05T00:06:17.504Z,98433.63
2022-12-05T00:08:44.842Z,98437.69
2022-12-05T00:11:13.593Z,98439.94
2022-12-05T00:13:41.037Z,98456.69
2022-12-05T00:16:12.192Z,98455.31
2022-12-05T00:18:39.100Z,98457.91
2022-12-05T00:21:06.881Z,98452.59
2022-12-05T00:23:33.749Z,98447.91
2022-12-05T00:26:04.789Z,98440.97
2022-12-05T00:28:32.394Z,98425.84
2022-12-05T00:31:03.608Z,98407.41
2022-12-05T00:33:30.064Z,98402.50
2022-12-05T00:36:01.861Z,98399.28
2022-12-05T00:38:28.339Z,98404.16
2022-12-05T00:40:54.793Z,98390.06
2022-12-05T00:43:21.182Z,98397.41
2022-12-05T00:45:47.592Z,98410.84
2022-12-05T00:48:14.131Z,98420.28
2022-12-05T00:50:40.598Z,98417.59
2022-12-05T00:53:07.003Z,98426.63
2022-12-05T00:55:37.386Z,98421.75
2022-12-05T00:58:03.836Z,98425.44
2022-12-05T01:00:30.458Z,98426.66
2022-12-05T01:02:56.928Z,98429.88
2022-12-05T01:05:23.403Z,98432.34
2022-12-05T01:07:49.896Z,98433.16
2022-12-05T01:10:16.528Z,98434.41
2022-12-05T01:12:42.932Z,98445.25
2022-12-05T01:15:10.050Z,98451.59
2022-12-05T01:17:36.454Z,98456.69
2022-12-05T01:20:03.213Z,98460.94
2022-12-05T01:22:29.623Z,98454.44
2022-12-05T01:24:56.065Z,98458.50
2022-12-05T01:27:22.543Z,98463.44
2022-12-05T01:29:49.079Z,98473.88
2022-12-05T01:32:15.587Z,98474.47
2022-12-05T01:34:42.118Z,98469.16
2022-12-05T01:37:08.586Z,98462.00
2022-12-05T01:39:35.064Z,98466.69
2022-12-05T01:42:01.592Z,98463.44
2022-12-05T01:44:28.064Z,98467.56
2022-12-05T01:46:55.761Z,98469.81
2022-12-05T01:49:37.446Z,98468.53
2022-12-05T01:52:13.342Z,98469.00
2022-12-05T01:54:40.765Z,98469.78
2022-12-05T01:57:10.590Z,98467.06
2022-12-05T01:59:41.698Z,98461.38
2022-12-05T02:02:08.826Z,98456.84
2022-12-05T02:04:42.051Z,98457.47
2022-12-05T02:07:08.507Z,98455.63
2022-12-05T02:09:36.499Z,98464.63
2022-12-05T02:12:04.282Z,98464.63
2022-12-05T02:15:01.300Z,98460.13
2022-12-05T02:17:51.125Z,98454.44
2022-12-05T02:20:46.731Z,98448.09
2022-12-05T02:23:27.541Z,98446.06
2022-12-05T02:26:12.840Z,98449.13
2022-12-05T02:29:09.603Z,98440.50
2022-12-05T02:31:56.421Z,98444.19
2022-12-05T02:34:35.144Z,98438.25
2022-12-05T02:37:14.779Z,98436.00
2022-12-05T02:39:43.902Z,98440.09
2022-12-05T02:42:19.837Z,98438.66
2022-12-05T02:44:56.506Z,98444.56
2022-12-05T02:47:27.467Z,98438.00
2022-12-05T02:49:55.219Z,98436.38
2022-12-05T02:52:24.202Z,98453.19
2022-12-05T02:54:53.419Z,98461.78
2022-12-05T02:57:21.550Z,98464.25
2022-12-05T02:59:48.115Z,98465.88
2022-12-05T03:02:41.276Z,98463.84
2022-12-05T03:05:39.983Z,98473.88
2022-12-05T03:08:10.639Z,98485.13
2022-12-05T03:10:40.463Z,98475.44
2022-12-05T03:13:16.970Z,98473.66
2022-12-05T03:15:51.958Z,98479.38
2022-12-05T03:18:25.941Z,98485.69
2022-12-05T03:21:02.293Z,98484.72
2022-12-05T03:23:34.662Z,98482.69
2022-12-05T03:26:25.930Z,98479.22
2022-12-05T03:29:12.296Z,98484.53
2022-12-05T03:31:49.902Z,98482.47
2022-12-05T03:34:27.533Z,98474.09
2022-12-05T03:36:54.605Z,98475.16
2022-12-05T03:39:31.882Z,98483.13
2022-12-05T03:42:03.908Z,98479.88
2022-12-05T03:44:53.222Z,98490.13
2022-12-05T03:47:41.098Z,98498.28
2022-12-05T03:50:25.575Z,98496.25
2022-12-05T03:53:19.234Z,98503.25
2022-12-05T03:55:47.255Z,98507.31
2022-12-05T03:58:52.160Z,98514.31
2022-12-05T04:01:22.771Z,98513.88
2022-12-05T04:03:57.965Z,98518.59
2022-12-05T04:06:35.362Z,98504.47
2022-12-05T04:09:16.908Z,98503.69
2022-12-05T04:11:50.994Z,98516.31
2022-12-05T04:14:30.487Z,98521.06
2022-12-05T04:17:05.467Z,98518.19
2022-12-05T04:20:03.268Z,98511.06
2022-12-05T04:22:30.247Z,98514.31
2022-12-05T04:25:18.426Z,98515.34
2022-12-05T04:27:50.698Z,98506.16
2022-12-05T04:30:26.349Z,98519.84
2022-12-05T04:33:04.694Z,98514.31
2022-12-05T04:35:36.870Z,98523.75
2022-12-05T04:38:15.333Z,98527.22
2022-12-05T04:40:53.196Z,98511.06
2022-12-05T04:43:21.453Z,98500.81
2022-12-05T04:45:51.016Z,98487.72
2022-12-05T04:48:19.380Z,98495.09
2022-12-05T04:50:49.192Z,98497.94
2022-12-05T04:53:17.364Z,98511.84
2022-12-05T04:55:49.346Z,98529.84
2022-12-05T04:58:19.589Z,98552.16
2022-12-05T05:01:04.676Z,98573.41
2022-12-05T05:03:38.382Z,98570.75
2022-12-05T05:06:05.200Z,98572.41
2022-12-05T05:08:31.666Z,98561.38
2022-12-05T05:11:06.822Z,98565.03
2022-12-05T05:13:33.325Z,98567.31
2022-12-05T05:15:59.829Z,98554.22
2022-12-05T05:18:26.400Z,98556.47
2022-12-05T05:20:52.868Z,98585.16
2022-12-05T05:23:19.314Z,98600.47
2022-12-05T05:25:45.933Z,98600.88
2022-12-05T05:28:12.367Z,98595.53
2022-12-05T05:30:38.785Z,98598.84
2022-12-05T05:33:05.264Z,98601.25
2022-12-05T05:35:31.699Z,98597.78
2022-12-05T05:37:58.088Z,98585.94
2022-12-05T05:40:24.515Z,98586.31
2022-12-05T05:42:51.163Z,98594.50
2022-12-05T05:45:18.176Z,98620.31
2022-12-05T05:47:44.908Z,98625.25
2022-12-05T05:50:16.256Z,98630.34
2022-12-05T05:52:46.154Z,98646.72
2022-12-05T05:55:12.584Z,98636.22
2022-12-05T05:57:39.036Z,98636.88
2022-12-05T06:00:07.225Z,98625.63
2022-12-05T06:02:35.172Z,98641.63
2022-12-05T06:05:01.889Z,98644.72
2022-12-05T06:07:29.076Z,98638.78
2022-12-05T06:09:55.858Z,98639.97
2022-12-05T06:12:22.969Z,98638.94
2022-12-05T06:14:50.061Z,98635.47
2022-12-05T06:17:16.834Z,98630.94
2022-12-05T06:19:43.374Z,98640.78
2022-12-05T06:22:09.807Z,98648.19
2022-12-05T06:24:36.426Z,98649.38
2022-12-05T06:27:02.867Z,98645.91
2022-12-05T06:29:33.604Z,98643.84
2022-12-05T06:32:00.946Z,98650.19
2022-12-05T06:34:27.459Z,98654.72
2022-12-05T06:36:53.855Z,98670.66
2022-12-05T06:39:20.402Z,98672.47
2022-12-05T06:41:47.013Z,98671.84
2022-12-05T06:44:13.501Z,98686.38
2022-12-05T06:46:39.952Z,98680.03
2022-12-05T06:49:06.494Z,98682.13
2022-12-05T06:51:32.934Z,98689.44
2022-12-05T06:53:59.429Z,98694.59
2022-12-05T06:56:25.981Z,98691.56
2022-12-05T06:58:55.543Z,98694.53
2022-12-05T07:01:40.815Z,98700.47
2022-12-05T07:04:11.130Z,98702.28
2022-12-05T07:06:37.813Z,98692.69
2022-12-05T07:09:06.279Z,98699.00
2022-12-05T07:11:33.466Z,98698.59
2022-12-05T07:13:59.920Z,98699.81
2022-12-05T07:16:26.460Z,98713.50
2022-12-05T07:18:53.068Z,98714.09
2022-12-05T07:21:21.605Z,98704.78
2022-12-05T07:23:50.233Z,98691.84
2022-12-05T07:26:22.011Z,98703.50
2022-12-05T07:28:49.591Z,98709.03
2022-12-05T07:31:20.678Z,98722.16
2022-12-05T07:33:47.163Z,98723.34
2022-12-05T07:36:16.731Z,98722.53
2022-12-05T07:38:44.000Z,98720.44
2022-12-05T07:41:23.216Z,98713.69
2022-12-05T07:43:54.355Z,98713.03
2022-12-05T07:46:21.713Z,98713.50
2022-12-05T07:48:49.211Z,98714.69
2022-12-05T07:51:16.020Z,98722.03
2022-12-05T07:53:43.742Z,98722.28
2022-12-05T07:56:14.502Z,98731.25
2022-12-05T07:58:40.921Z,98728.81
2022-12-05T08:01:08.836Z,98726.56
2022-12-05T08:03:37.412Z,98726.19
2022-12-05T08:06:05.948Z,98733.59
2022-12-05T08:08:32.938Z,98732.97
2022-12-05T08:11:12.024Z,98736.50
2022-12-05T08:13:38.823Z,98732.84
2022-12-05T08:16:08.605Z,98729.56
2022-12-05T08:18:35.634Z,98739.41
2022-12-05T08:21:04.005Z,98745.19
2022-12-05T08:23:31.793Z,98744.81
2022-12-05T08:26:03.569Z,98751.16
2022-12-05T08:28:30.581Z,98739.44
2022-12-05T08:31:02.420Z,98735.38
2022-12-05T08:33:29.260Z,98748.06
2022-12-05T08:35:55.714Z,98753.81
2022-12-05T08:38:23.359Z,98764.66
2022-12-05T08:40:49.751Z,98758.09
2022-12-05T08:43:16.158Z,98754.38
2022-12-05T08:45:49.914Z,98747.22
2022-12-05T08:48:16.428Z,98758.88
2022-12-05T08:50:42.886Z,98757.84
2022-12-05T08:53:09.372Z,98753.78
2022-12-05T08:55:38.764Z,98751.94
2022-12-05T08:58:05.616Z,98747.63
2022-12-05T09:00:32.100Z,98751.91
2022-12-05T09:02:59.062Z,98749.44
2022-12-05T09:05:29.065Z,98747.00
2022-12-05T09:07:56.122Z,98753.53
2022-12-05T09:10:22.846Z,98748.22
2022-12-05T09:12:51.289Z,98759.03
2022-12-05T09:15:18.201Z,98749.19
2022-12-05T09:17:45.086Z,98755.41
2022-12-05T09:20:13.821Z,98764.41
2022-12-05T09:22:41.394Z,98766.06
2022-12-05T09:25:09.026Z,98771.84
2022-12-05T09:27:35.553Z,98773.69
2022-12-05T09:30:02.323Z,98774.72
2022-12-05T09:32:29.071Z,98774.53
2022-12-05T09:34:55.734Z,98776.97
2022-12-05T09:37:38.512Z,98778.84
2022-12-05T09:40:06.742Z,98776.81
2022-12-05T09:42:43.968Z,98790.78
2022-12-05T09:45:28.898Z,98791.41
2022-12-05T09:48:07.057Z,98780.94
2022-12-05T09:50:48.259Z,98787.88
2022-12-05T09:53:27.417Z,98783.59
2022-12-05T09:56:06.113Z,98796.94
2022-12-05T09:58:57.114Z,98794.25
2022-12-05T10:02:01.924Z,98783.16
2022-12-05T10:04:35.026Z,98787.25
2022-12-05T10:07:17.805Z,98794.41
2022-12-05T10:10:20.000Z,98800.16
2022-12-05T10:13:05.376Z,98796.44
2022-12-05T10:15:38.167Z,98800.53
2022-12-05T10:18:11.046Z,98806.47
2022-12-05T10:20:40.511Z,98802.59
2022-12-05T10:23:55.621Z,98802.16
2022-12-05T10:26:13.310Z,98798.44
2022-12-05T10:29:06.985Z,98798.41
2022-12-05T10:31:37.588Z,98801.84
2022-12-05T10:34:23.338Z,98796.16
2022-12-05T10:37:09.545Z,98801.22
2022-12-05T10:39:37.282Z,98792.88
2022-12-05T10:42:05.230Z,98800.31
2022-12-05T10:44:33.411Z,98803.34
2022-12-05T10:47:00.055Z,98795.50
2022-12-05T10:49:28.052Z,98791.44
2022-12-05T10:51:54.496Z,98787.56
2022-12-05T10:54:24.889Z,98790.25
2022-12-05T10:56:53.312Z,98787.56
2022-12-05T10:59:46.790Z,98786.69
2022-12-05T11:02:23.268Z,98790.22
2022-12-05T11:04:50.836Z,98793.22
2022-12-05T11:07:43.783Z,98778.88
2022-12-05T11:10:34.458Z,98781.19
2022-12-05T11:13:02.163Z,98780.44
2022-12-05T11:15:30.811Z,98771.00
2022-12-05T11:18:16.965Z,98769.16
2022-12-05T11:20:43.498Z,98765.94
2022-12-05T11:23:23.282Z,98767.72
2022-12-05T11:25:50.982Z,98767.56
2022-12-05T11:28:17.459Z,98762.16
2022-12-05T11:31:23.008Z,98760.16
2022-12-05T11:34:02.350Z,98753.50
2022-12-05T11:36:43.708Z,98756.78
2022-12-05T11:39:13.125Z,98756.66
2022-12-05T11:41:47.665Z,98753.16
2022-12-05T11:44:32.567Z,98737.25
2022-12-05T11:47:11.176Z,98748.41
2022-12-05T11:49:53.862Z,98748.06
2022-12-05T11:52:22.971Z,98749.78
2022-12-05T11:55:04.915Z,98740.06
2022-12-05T11:57:51.986Z,98738.25
2022-12-05T12:00:49.973Z,98738.59
2022-12-05T12:03:34.163Z,98733.50
2022-12-05T12:06:43.780Z,98737.84
2022-12-05T12:09:25.379Z,98736.78
2022-12-05T12:11:51.818Z,98726.72
2022-12-05T12:14:47.330Z,98738.72
2022-12-05T12:17:31.365Z,98729.44
2022-12-05T12:20:19.137Z,98732.31
2022-12-05T12:23:05.688Z,98735.16
2022-12-05T12:26:09.068Z,98731.50
2022-12-05T12:28:52.713Z,98725.97
2022-12-05T12:31:34.247Z,98734.53
2022-12-05T12:34:19.491Z,98732.16
2022-12-05T12:36:53.505Z,98730.69
2022-12-05T12:40:03.611Z,98728.31
2022-12-05T12:42:50.244Z,98722.31
2022-12-05T12:45:35.793Z,98721.59
2022-12-05T12:48:10.520Z,98731.97
2022-12-05T12:50:44.015Z,98733.00
2022-12-05T12:53:19.863Z,98731.81
2022-12-05T12:56:20.583Z,98737.00
2022-12-05T12:58:54.090Z,98732.91
2022-12-05T13:01:26.520Z,98730.06
2022-12-05T13:04:02.534Z,98720.50
2022-12-05T13:06:43.108Z,98716.38
2022-12-05T13:09:18.192Z,98725.13
2022-12-05T13:11:46.797Z,98708.38
2022-12-05T13:14:17.796Z,98710.31
2022-12-05T13:16:50.365Z,98708.13
2022-12-05T13:19:37.954Z,98710.69
2022-12-05T13:22:06.662Z,98716.25
2022-12-05T13:24:33.520Z,98710.63
2022-12-05T13:27:02.795Z,98707.25
2022-12-05T13:29:34.358Z,98716.66
2022-12-05T13:32:04.250Z,98710.22
2022-12-05T13:34:45.958Z,98721.91
2022-12-05T13:37:44.477Z,98711.13
2022-12-05T13:40:46.469Z,98714.06
2022-12-05T13:43:16.439Z,98709.13
2022-12-05T13:45:58.858Z,98712.16
2022-12-05T13:48:26.915Z,98705.72
2022-12-05T13:51:22.719Z,98719.81
2022-12-05T13:53:58.105Z,98713.53
2022-12-05T13:56:58.972Z,98717.59
2022-12-05T14:00:01.340Z,98714.66
2022-12-05T14:02:46.956Z,98713.84
2022-12-05T14:05:19.428Z,98722.88
2022-12-05T14:07:48.158Z,98720.31
2022-12-05T14:10:28.235Z,98726.69
2022-12-05T14:13:24.024Z,98721.03
2022-12-05T14:15:51.682Z,98721.47
2022-12-05T14:18:54.601Z,98730.41
2022-12-05T14:21:49.117Z,98729.03
2022-12-05T14:24:36.966Z,98731.78
2022-12-05T14:27:21.356Z,98729.38
2022-12-05T14:30:06.529Z,98729.31
2022-12-05T14:32:42.607Z,98726.88
2022-12-05T14:35:15.162Z,98721.13
2022-12-05T14:37:57.754Z,98724.63
2022-12-05T14:40:32.389Z,98725.81
2022-12-05T14:43:31.234Z,98738.88
2022-12-05T14:46:08.221Z,98739.09
2022-12-05T14:48:48.272Z,98738.53
2022-12-05T14:51:38.190Z,98736.75
2022-12-05T14:54:10.459Z,98738.06
2022-12-05T14:56:42.645Z,98748.78
2022-12-05T14:59:27.278Z,98747.16
2022-12-05T15:02:00.852Z,98750.53
2022-12-05T15:04:44.291Z,98753.28
2022-12-05T15:07:16.850Z,98764.66
2022-12-05T15:10:04.997Z,98755.03
2022-12-05T15:12:51.667Z,98758.56
2022-12-05T15:15:39.358Z,98762.69
2022-12-05T15:18:24.239Z,98763.94
2022-12-05T15:20:50.598Z,98763.34
2022-12-05T15:23:49.187Z,98763.41
2022-12-05T15:29:10.465Z,98775.16
2022-12-05T15:31:44.516Z,98772.47
2022-12-05T15:34:31.946Z,98776.59
2022-12-05T15:37:05.010Z,98771.06
2022-12-05T15:40:09.855Z,98768.56
2022-12-05T15:42:41.321Z,98776.00
2022-12-05T15:45:13.639Z,98782.25
2022-12-05T15:47:45.323Z,98785.16
2022-12-05T15:50:17.191Z,98783.53
2022-12-05T15:52:51.346Z,98782.31
2022-12-05T15:55:25.956Z,98786.06
2022-12-05T15:58:25.003Z,98786.06
2022-12-05T16:01:01.134Z,98785.03
2022-12-05T16:03:46.053Z,98790.16
2022-12-05T16:06:26.837Z,98788.53
2022-12-05T16:08:54.201Z,98785.66
2022-12-05T16:11:20.908Z,98790.59
2022-12-05T16:13:56.213Z,98784.66
2022-12-05T16:16:25.828Z,98786.53
2022-12-05T16:18:58.360Z,98794.94
2022-12-05T16:21:38.975Z,98799.25
2022-12-05T16:24:15.896Z,98795.50
2022-12-05T16:26:42.705Z,98786.09
2022-12-05T16:29:28.275Z,98802.97
2022-12-05T16:32:00.273Z,98800.09
2022-12-05T16:34:29.151Z,98798.88
2022-12-05T16:36:56.900Z,98795.59
2022-12-05T16:39:25.774Z,98803.44
2022-12-05T16:41:52.746Z,98800.97
2022-12-05T16:44:31.800Z,98799.91
2022-12-05T16:46:58.795Z,98802.59
2022-12-05T16:49:38.819Z,98798.94
2022-12-05T16:52:09.158Z,98797.66
2022-12-05T16:54:35.729Z,98805.91
2022-12-05T16:57:02.852Z,98802.84
2022-12-05T16:59:36.591Z,98809.19
2022-12-05T17:02:05.584Z,98809.41
2022-12-05T17:04:32.133Z,98803.91
2022-12-05T17:06:58.925Z,98816.19
2022-12-05T17:09:25.365Z,98813.31
2022-12-05T17:11:57.118Z,98817.63
2022-12-05T17:14:23.883Z,98820.94
2022-12-05T17:16:50.371Z,98824.22
2022-12-05T17:19:16.899Z,98817.00
2022-12-05T17:21:43.697Z,98827.25
2022-12-05T17:24:17.304Z,98826.81
2022-12-05T17:26:44.629Z,98833.88
2022-12-05T17:29:11.616Z,98836.97
2022-12-05T17:31:38.235Z,98839.75
2022-12-05T17:34:13.824Z,98840.44
2022-12-05T17:36:40.237Z,98844.75
2022-12-05T17:39:06.644Z,98847.00
2022-12-05T17:41:33.067Z,98849.06
2022-12-05T17:43:59.502Z,98837.97
2022-12-05T17:46:25.934Z,98855.81
2022-12-05T17:48:52.589Z,98842.91
2022-12-05T17:51:20.174Z,98853.56
2022-12-05T17:53:47.522Z,98856.84
2022-12-05T17:56:14.279Z,98855.19
2022-12-05T17:58:41.285Z,98860.94
2022-12-05T18:01:14.218Z,98860.94
2022-12-05T18:03:40.725Z,98864.25
2022-12-05T18:06:07.550Z,98869.97
2022-12-05T18:08:34.187Z,98867.50
2022-12-05T18:11:00.621Z,98866.66
2022-12-05T18:13:27.023Z,98863.75
2022-12-05T18:15:58.012Z,98864.75
2022-12-05T18:18:27.355Z,98864.97
2022-12-05T18:20:53.903Z,98864.16
2022-12-05T18:23:20.472Z,98863.31
2022-12-05T18:25:57.074Z,98867.41
2022-12-05T18:28:23.609Z,98862.91
2022-12-05T18:30:50.085Z,98869.88
2022-12-05T18:33:16.504Z,98868.41
2022-12-05T18:35:43.004Z,98867.31
2022-12-05T18:38:12.819Z,98871.44
2022-12-05T18:40:39.355Z,98871.28
2022-12-05T18:43:06.138Z,98876.38
2022-12-05T18:45:32.782Z,98876.19
2022-12-05T18:48:09.796Z,98874.34
2022-12-05T18:50:45.805Z,98867.56
2022-12-05T18:53:12.257Z,98879.31
2022-12-05T18:56:04.785Z,98881.75
2022-12-05T18:58:25.028Z,98879.47
2022-12-05T19:00:51.468Z,98873.31
2022-12-05T19:03:18.041Z,98879.28
2022-12-05T19:05:44.441Z,98876.84
2022-12-05T19:08:10.933Z,98879.66
2022-12-05T19:10:37.520Z,98874.97
2022-12-05T19:13:04.025Z,98877.44
2022-12-05T19:15:30.504Z,98876.84
2022-12-05T19:17:56.906Z,98884.22
2022-12-05T19:20:23.304Z,98882.56
2022-12-05T19:22:49.744Z,98886.28
2022-12-05T19:25:16.297Z,98892.44
2022-12-05T19:27:42.723Z,98887.66
2022-12-05T19:30:10.118Z,98896.28
2022-12-05T19:32:40.310Z,98896.06
2022-12-05T19:35:07.796Z,98897.53
2022-12-05T19:37:34.399Z,98893.63
2022-12-05T19:40:01.094Z,98894.63
2022-12-05T19:42:29.394Z,98897.69
2022-12-05T19:44:55.897Z,98898.31
2022-12-05T19:47:22.474Z,98906.81
2022-12-05T19:49:49.248Z,98892.22
2022-12-05T19:52:18.027Z,98896.16
2022-12-05T19:54:45.104Z,98904.97
2022-12-05T19:57:12.118Z,98900.44
2022-12-05T19:59:38.550Z,98903.91
2022-12-05T20:02:05.044Z,98905.53
2022-12-05T20:04:31.557Z,98900.59
2022-12-05T20:06:57.959Z,98902.84
2022-12-05T20:09:24.417Z,98894.44
2022-12-05T20:11:55.095Z,98901.38
2022-12-05T20:14:24.288Z,98897.47
2022-12-05T20:16:50.948Z,98890.00
2022-12-05T20:19:17.587Z,98894.72
2022-12-05T20:21:44.513Z,98902.13
2022-12-05T20:24:11.549Z,98901.25
2022-12-05T20:26:41.205Z,98899.78
2022-12-05T20:29:08.533Z,98891.22
2022-12-05T20:31:41.098Z,98897.34
2022-12-05T20:34:11.339Z,98891.41
2022-12-05T20:36:37.827Z,98894.03
2022-12-05T20:39:11.093Z,98898.13
2022-12-05T20:41:37.664Z,98898.72
2022-12-05T20:44:06.411Z,98896.84
2022-12-05T20:46:33.309Z,98902.56
2022-12-05T20:49:00.289Z,98892.69
2022-12-05T20:51:29.834Z,98895.53
2022-12-05T20:53:58.098Z,98899.25
2022-12-05T20:56:29.562Z,98893.72
2022-12-05T20:58:58.542Z,98893.53
2022-12-05T21:01:26.888Z,98897.81
2022-12-05T21:03:54.336Z,98890.44
2022-12-05T21:06:32.202Z,98888.16
2022-12-05T21:09:00.042Z,98884.22
2022-12-05T21:11:28.127Z,98886.06
2022-12-05T21:13:56.022Z,98886.91
2022-12-05T21:16:23.383Z,98878.72
2022-12-05T21:18:51.063Z,98867.00
2022-12-05T21:21:20.790Z,98864.53
2022-12-05T21:23:53.100Z,98865.81
2022-12-05T21:26:20.788Z,98868.66
2022-12-05T21:28:47.596Z,98869.25
2022-12-05T21:31:20.191Z,98867.59
2022-12-05T21:33:49.437Z,98876.00
2022-12-05T21:36:16.369Z,98874.97
2022-12-05T21:38:43.041Z,98864.78
2022-12-05T21:41:09.472Z,98870.25
2022-12-05T21:43:36.661Z,98875.81
2022-12-05T21:46:03.880Z,98861.88
2022-12-05T21:48:31.110Z,98866.59
2022-12-05T21:50:57.732Z,98858.59
2022-12-05T21:53:24.532Z,98868.00
2022-12-05T21:56:11.519Z,98868.38
2022-12-05T21:58:42.318Z,98865.06
2022-12-05T22:01:10.806Z,98862.19
2022-12-05T22:03:37.671Z,98866.66
2022-12-05T22:06:06.919Z,98869.72
2022-12-05T22:08:34.181Z,98868.28
2022-12-05T22:11:15.936Z,98865.84
2022-12-05T22:13:44.211Z,98862.75
2022-12-05T22:16:12.160Z,98862.50
2022-12-05T22:18:39.041Z,98860.94
2022-12-05T22:21:12.831Z,98858.47
2022-12-05T22:23:39.284Z,98856.41
2022-12-05T22:26:08.231Z,98849.97
2022-12-05T22:28:35.654Z,98857.25
2022-12-05T22:31:04.485Z,98854.97
2022-12-05T22:33:31.723Z,98856.41
2022-12-05T22:36:00.074Z,98859.66
2022-12-05T22:38:28.934Z,98850.59
2022-12-05T22:41:11.034Z,98860.41
2022-12-05T22:43:37.955Z,98860.69
2022-12-05T22:46:10.723Z,98851.47
2022-12-05T22:48:37.468Z,98847.44
2022-12-05T22:51:06.297Z,98847.72
2022-12-05T22:53:32.959Z,98844.66
2022-12-05T22:56:16.413Z,98844.88
2022-12-05T22:58:44.527Z,98840.31
2022-12-05T23:01:16.880Z,98837.44
2022-12-05T23:03:45.688Z,98840.94
2022-12-05T23:06:13.952Z,98841.31
2022-12-05T23:08:41.778Z,98833.19
2022-12-05T23:11:10.198Z,98840.78
2022-12-05T23:13:38.349Z,98830.16
2022-12-05T23:16:10.071Z,98834.31
2022-12-05T23:18:46.804Z,98833.34
2022-12-05T23:21:23.730Z,98829.88
2022-12-05T23:23:52.868Z,98829.63
2022-12-05T23:26:22.233Z,98819.13
2022-12-05T23:28:49.179Z,98820.78
2022-12-05T23:31:16.413Z,98825.81
2022-12-05T23:33:43.193Z,98827.47
2022-12-05T23:36:11.121Z,98818.91
2022-12-05T23:38:38.822Z,98835.22
2022-12-05T23:41:12.580Z,98828.84
2022-12-05T23:43:39.566Z,98820.75
2022-12-05T23:46:06.522Z,98827.56
2022-12-05T23:48:33.591Z,98820.50
2022-12-05T23:51:27.965Z,98822.50
2022-12-05T23:53:58.315Z,98821.69
2022-12-05T23:56:27.854Z,98815.66
2022-12-05T23:58:55.412Z,98818.59
